Huvudsida
METAR-TAF:

METAR-TAF

Flygplatser :

Ålesunds flygplats. Vigra

Ålesund, Norge

latitud: 62-34N, longitud: 006-07E, höjd: 2 m

Aktuellt väderrapport

Denna rapport gjordes för 39 minuter sedan, klockan 17:50 UTC
Vind 10 kt från nordost, varierande mellan nord och ost
Temperatur 19°C
Fuktighet 49%
Tryck 1015 hPa
Sikt 10 km eller mer
Inga moln under 1 500 m eller inga cumulonimbus

METAR: ENAL 221750Z 05010KT 360V080 CAVOK 19/08 Q1015

Tid: 20:29 (18:29 UTC)

Väderprognos

Denna rapport gjordes för 4 timmar och 29 minuter sedan, klockan 14:00 UTC
Prognos gäller från 22 kl. 15 UTC till 22 kl. 22 UTC
Vind 9 kt från nordost
Sikt 10 km eller mer
Inga moln under 1 500 m eller inga cumulonimbus
Blir
från 22 kl. 20 UTC till 22 kl. 22 UTC
Vind 10 kt från sydost

TAF: ENAL 221400Z 2215/2222 04009KT CAVOK BECMG 2220/2222 13010KT

Aktuella väderrapporter och prognoser från 4000 flygplatser (METAR- och TAF-rapporter).

De tillgängliga stationerna syns som gula och röda prickar på kartan.

För musen över prickarna för att se namnen på stationerna.

Klicka sedan för att få väderrapporter och prognoser.

För att ändra kartan: Klicka på de gröna knapparna med ett svart kors på för att zooma in; den gröna knappen med ett streck på för att zooma ut; eller på de gröna pilarna för angränsande kartor.


METAR-TAF: